Time;durP1;ratioP1;P1;durP2;ratioP2;P2;SDS_P1;SDS_P2;PMS_P1;PMS_P2;Temp;Humidity;BMP_temperature;BMP_pressure;BME280_temperature;BME280_humidity;BME280_pressure;Samples;Min_cycle;Max_cycle;Signal;HPM_P1;HPM_P2
2023/04/10 00:02:17;;;;;;;14.07;9.20;;;11.50;47.60;;;;;;5071583;28;20493;-87
2023/04/10 00:04:45;;;;;;;15.00;9.37;;;11.50;47.70;;;;;;5075100;28;20483;-88
2023/04/10 00:07:13;;;;;;;12.73;8.93;;;11.50;47.60;;;;;;5081671;28;20451;-86
2023/04/10 00:09:40;;;;;;;14.43;9.80;;;11.50;47.50;;;;;;5087404;28;20452;-85
2023/04/10 00:12:07;;;;;;;16.70;10.07;;;11.40;47.60;;;;;;5072835;28;20467;-86
2023/04/10 00:14:34;;;;;;;16.10;9.83;;;11.30;47.80;;;;;;5074097;28;20549;-87
2023/04/10 00:17:02;;;;;;;17.30;10.70;;;11.30;47.90;;;;;;5072296;28;20521;-87
2023/04/10 00:19:29;;;;;;;12.50;9.23;;;11.30;47.80;;;;;;5072100;28;21027;-88
2023/04/10 00:21:57;;;;;;;12.37;8.87;;;11.20;47.80;;;;;;5072665;28;20472;-86
2023/04/10 00:24:24;;;;;;;14.63;10.40;;;11.20;47.80;;;;;;5075457;28;20439;-87
2023/04/10 00:26:51;;;;;;;13.03;9.00;;;11.20;47.40;;;;;;5089241;28;21082;-87
2023/04/10 00:29:19;;;;;;;16.03;10.00;;;11.10;47.90;;;;;;5076323;28;20520;-86
2023/04/10 00:31:46;;;;;;;16.07;9.50;;;11.10;48.30;;;;;;5062160;28;20464;-85
2023/04/10 00:34:15;;;;;;;19.53;10.53;;;11.10;48.40;;;;;;5074193;28;20744;-87
2023/04/10 00:36:42;;;;;;;16.50;10.10;;;11.00;48.90;;;;;;5105979;27;20979;-86
2023/04/10 00:39:10;;;;;;;14.63;10.30;;;10.90;49.00;;;;;;5104775;27;20458;-86
2023/04/10 00:41:37;;;;;;;12.53;9.23;;;10.90;49.00;;;;;;5087135;28;20484;-86
2023/04/10 00:44:04;;;;;;;14.13;9.03;;;10.90;48.30;;;;;;5055762;28;21170;-86
2023/04/10 00:46:34;;;;;;;11.27;7.70;;;10.90;48.50;;;;;;5063241;27;20455;-86
2023/04/10 00:49:01;;;;;;;11.70;8.67;;;10.80;48.40;;;;;;5074232;28;20830;-88
2023/04/10 00:51:30;;;;;;;14.23;9.20;;;10.80;48.80;;;;;;5063241;28;20467;-86
2023/04/10 00:53:57;;;;;;;12.20;9.73;;;10.80;48.80;;;;;;5073507;28;20480;-86
2023/04/10 00:56:25;;;;;;;16.80;9.90;;;10.70;48.60;;;;;;5057821;28;20470;-86
2023/04/10 00:58:52;;;;;;;16.67;9.53;;;10.70;48.40;;;;;;5061324;28;20440;-87
2023/04/10 01:01:19;;;;;;;18.03;11.00;;;10.70;48.50;;;;;;5074052;28;20467;-87
2023/04/10 01:03:46;;;;;;;15.50;8.80;;;10.70;48.30;;;;;;5088737;28;20993;-86
2023/04/10 01:06:22;;;;;;;16.30;9.70;;;10.70;48.40;;;;;;5080273;28;20450;-86
2023/04/10 01:09:00;;;;;;;14.90;9.17;;;10.70;48.70;;;;;;5064414;28;20439;-86
2023/04/10 01:11:47;;;;;;;13.87;8.67;;;10.60;48.50;;;;;;5097693;28;20482;-87
2023/04/10 01:14:23;;;;;;;17.53;8.90;;;10.60;48.30;;;;;;5087810;28;20439;-88
2023/04/10 01:16:58;;;;;;;14.60;8.23;;;10.50;48.50;;;;;;5073802;28;20658;-88
2023/04/10 01:19:37;;;;;;;12.33;8.47;;;10.40;48.80;;;;;;5099762;27;20450;-86
2023/04/10 01:22:09;;;;;;;16.70;8.83;;;10.30;48.80;;;;;;5087779;28;20962;-87
2023/04/10 01:24:53;;;;;;;10.83;8.70;;;10.30;48.90;;;;;;5057273;28;20450;-87
2023/04/10 01:27:36;;;;;;;17.70;10.47;;;10.30;48.80;;;;;;5074491;28;20495;-88
2023/04/10 01:30:07;;;;;;;15.73;10.20;;;10.30;49.00;;;;;;5092958;28;21013;-86
2023/04/10 01:32:36;;;;;;;13.93;9.03;;;10.20;48.90;;;;;;5103946;27;20462;-85
2023/04/10 01:35:07;;;;;;;16.33;10.90;;;10.20;48.70;;;;;;5063328;28;20439;-86
2023/04/10 01:37:42;;;;;;;18.40;9.30;;;10.20;48.80;;;;;;5071973;28;20551;-88
2023/04/10 01:40:13;;;;;;;12.87;8.63;;;10.30;49.00;;;;;;5088794;28;20463;-88
2023/04/10 01:42:47;;;;;;;15.03;9.80;;;10.30;48.70;;;;;;5064012;28;20527;-88
2023/04/10 01:45:20;;;;;;;11.90;8.43;;;10.30;48.60;;;;;;5075696;28;20442;-88
2023/04/10 01:47:50;;;;;;;14.97;9.20;;;10.10;47.90;;;;;;5091944;28;20499;-87
2023/04/10 01:50:19;;;;;;;19.80;8.80;;;10.00;49.40;;;;;;5089273;28;20528;-87
2023/04/10 01:52:47;;;;;;;13.63;8.53;;;9.60;51.80;;;;;;5095576;27;20550;-88
2023/04/10 01:55:21;;;;;;;15.07;8.87;;;9.00;53.40;;;;;;5092332;28;20890;-85
2023/04/10 01:57:55;;;;;;;14.47;9.40;;;8.40;55.00;;;;;;5074139;28;20806;-86
2023/04/10 02:00:25;;;;;;;13.37;8.87;;;8.60;54.90;;;;;;5065806;28;20531;-86
2023/04/10 02:02:52;;;;;;;15.73;8.70;;;8.30;54.90;;;;;;5092159;27;20480;-87
2023/04/10 02:05:20;;;;;;;15.03;8.73;;;7.90;55.40;;;;;;5079908;28;20456;-87
2023/04/10 02:07:57;;;;;;;11.57;8.27;;;7.60;56.40;;;;;;5092191;27;20459;-88
2023/04/10 02:10:30;;;;;;;16.33;9.10;;;7.70;56.40;;;;;;5077388;28;21002;-85
2023/04/10 02:13:01;;;;;;;13.00;8.57;;;7.90;56.00;;;;;;5056528;28;20560;-86
2023/04/10 02:15:32;;;;;;;15.27;8.50;;;8.30;55.60;;;;;;5092174;28;20443;-86
2023/04/10 02:18:00;;;;;;;12.03;8.33;;;8.50;54.30;;;;;;5056024;28;21101;-88
2023/04/10 02:20:28;;;;;;;12.53;8.80;;;8.80;53.50;;;;;;5093071;28;20459;-86
2023/04/10 02:22:56;;;;;;;11.50;7.20;;;9.10;52.80;;;;;;5048944;28;20439;-87
2023/04/10 02:25:25;;;;;;;11.70;8.00;;;9.30;52.10;;;;;;5066531;28;20456;-87
2023/04/10 02:27:52;;;;;;;13.60;8.70;;;9.30;51.60;;;;;;5059341;28;20444;-87
2023/04/10 02:30:19;;;;;;;11.20;8.47;;;9.40;51.50;;;;;;5061486;28;21079;-87
2023/04/10 02:32:48;;;;;;;14.00;7.63;;;9.40;51.20;;;;;;5078945;28;20516;-89
2023/04/10 02:35:18;;;;;;;14.23;7.87;;;9.30;51.10;;;;;;5092032;28;20463;-88
2023/04/10 02:37:46;;;;;;;12.37;8.10;;;9.40;51.20;;;;;;5100323;28;20448;-86
2023/04/10 02:40:14;;;;;;;13.50;8.33;;;9.50;51.00;;;;;;5106975;27;20474;-87
2023/04/10 02:42:51;;;;;;;17.33;9.30;;;9.40;51.40;;;;;;5076141;28;20519;-88
2023/04/10 02:45:18;;;;;;;12.30;8.77;;;9.40;51.20;;;;;;5073151;28;20448;-86
2023/04/10 02:47:45;;;;;;;13.47;8.90;;;9.30;51.50;;;;;;5083078;28;20475;-86
2023/04/10 02:50:13;;;;;;;14.50;8.30;;;9.30;51.60;;;;;;5073534;28;21036;-88
2023/04/10 02:52:44;;;;;;;12.13;8.07;;;9.30;51.30;;;;;;5071978;28;20475;-87
2023/04/10 02:55:11;;;;;;;16.60;7.80;;;9.40;50.90;;;;;;5073038;28;21003;-88
2023/04/10 02:57:41;;;;;;;11.57;8.10;;;9.40;50.70;;;;;;5075646;28;20485;-84
2023/04/10 03:00:10;;;;;;;13.30;8.23;;;9.40;51.30;;;;;;5078451;28;20562;-87
2023/04/10 03:02:56;;;;;;;11.77;8.67;;;9.30;50.70;;;;;;5092694;28;20813;-88
2023/04/10 03:05:27;;;;;;;12.50;8.27;;;9.30;50.50;;;;;;5091448;28;20455;-87
2023/04/10 03:07:55;;;;;;;20.17;8.60;;;9.30;51.00;;;;;;5073778;28;20545;-87
2023/04/10 03:10:23;;;;;;;13.00;8.40;;;9.00;51.80;;;;;;5073972;28;21094;-88
2023/04/10 03:12:50;;;;;;;13.70;9.23;;;8.80;53.00;;;;;;5082703;28;20486;-88
2023/04/10 03:15:17;;;;;;;14.43;8.57;;;8.50;54.10;;;;;;5048561;28;20459;-88
2023/04/10 03:17:44;;;;;;;14.50;8.60;;;8.60;53.90;;;;;;5047584;27;20451;-87
2023/04/10 03:20:12;;;;;;;12.97;7.60;;;8.70;53.10;;;;;;5058381;28;20456;-87
2023/04/10 03:22:41;;;;;;;13.67;9.20;;;8.40;53.10;;;;;;5073060;27;21065;-88
2023/04/10 03:25:10;;;;;;;22.73;12.73;;;8.40;52.70;;;;;;5082679;28;20447;-88
2023/04/10 03:27:38;;;;;;;15.30;9.17;;;8.50;52.70;;;;;;5057706;28;20485;-86
2023/04/10 03:30:06;;;;;;;14.63;9.13;;;8.30;53.40;;;;;;5096118;27;20566;-88
2023/04/10 03:32:41;;;;;;;12.70;8.57;;;8.40;53.10;;;;;;5091868;28;20559;-88
2023/04/10 03:35:09;;;;;;;20.60;10.50;;;8.40;52.60;;;;;;5073619;28;20452;-86
2023/04/10 03:37:36;;;;;;;11.03;7.20;;;8.60;52.90;;;;;;5096348;28;20940;-86
2023/04/10 03:40:06;;;;;;;14.10;8.07;;;8.70;52.60;;;;;;5074723;28;20470;-89
2023/04/10 03:42:34;;;;;;;14.37;8.80;;;8.80;52.00;;;;;;5077576;28;20902;-87
2023/04/10 03:45:03;;;;;;;14.20;8.30;;;8.80;52.20;;;;;;5089620;27;20443;-87
2023/04/10 03:47:31;;;;;;;17.03;9.90;;;8.90;52.10;;;;;;5073007;28;20529;-88
2023/04/10 03:49:59;;;;;;;12.37;8.60;;;8.90;51.70;;;;;;5054298;28;20484;-87
2023/04/10 03:52:27;;;;;;;12.40;8.67;;;9.00;51.30;;;;;;5065522;28;20534;-86
2023/04/10 03:54:56;;;;;;;12.67;8.60;;;8.90;51.30;;;;;;5095065;28;20543;-87
2023/04/10 03:57:28;;;;;;;13.80;7.87;;;8.70;51.70;;;;;;5074629;28;20893;-86
2023/04/10 04:00:01;;;;;;;14.33;8.20;;;8.70;51.70;;;;;;5071402;28;20454;-87
2023/04/10 04:02:35;;;;;;;13.97;8.00;;;8.80;51.70;;;;;;5063223;28;20457;-88
2023/04/10 04:05:04;;;;;;;12.20;7.30;;;8.70;51.60;;;;;;5059100;28;20455;-88
2023/04/10 04:08:03;;;;;;;14.03;7.30;;;8.80;51.30;;;;;;5069912;28;20447;-88
2023/04/10 04:10:36;;;;;;;12.50;7.20;;;8.80;51.20;;;;;;5062424;28;20481;-88
2023/04/10 04:13:16;;;;;;;11.57;8.27;;;8.80;51.10;;;;;;5071918;28;20530;-89
2023/04/10 04:15:52;;;;;;;12.87;7.90;;;8.80;51.70;;;;;;5089993;28;20455;-87
2023/04/10 04:18:52;;;;;;;14.57;7.93;;;8.70;52.30;;;;;;5051588;28;20443;-89
2023/04/10 04:21:28;;;;;;;12.50;8.27;;;8.70;52.00;;;;;;5058639;28;20477;-87
2023/04/10 04:24:07;;;;;;;16.10;8.07;;;8.70;51.70;;;;;;5077841;28;20542;-88
2023/04/10 04:26:53;;;;;;;14.83;8.60;;;8.70;51.60;;;;;;5072131;28;20463;-88
2023/04/10 04:29:44;;;;;;;19.17;10.77;;;8.70;51.90;;;;;;5094790;28;20451;-88
2023/04/10 04:32:24;;;;;;;12.57;9.50;;;8.60;52.00;;;;;;5091178;28;20544;-85
2023/04/10 04:35:14;;;;;;;11.90;8.17;;;8.30;52.50;;;;;;5058613;28;20438;-87
2023/04/10 04:38:00;;;;;;;14.87;8.97;;;8.30;52.30;;;;;;5103837;27;20968;-87
2023/04/10 04:40:43;;;;;;;12.83;8.53;;;8.20;52.80;;;;;;5056229;28;20475;-87
2023/04/10 04:43:37;;;;;;;13.20;8.37;;;8.20;53.00;;;;;;5085326;28;20447;-88
2023/04/10 04:46:17;;;;;;;14.23;9.17;;;8.20;53.10;;;;;;5105528;27;20456;-88
2023/04/10 04:49:14;;;;;;;17.60;9.17;;;8.30;52.90;;;;;;5007437;28;20453;-88
2023/04/10 04:51:52;;;;;;;11.20;8.00;;;8.40;52.50;;;;;;5071994;28;20562;-88
2023/04/10 04:54:35;;;;;;;12.47;8.00;;;8.40;52.50;;;;;;5058505;28;21005;-87
2023/04/10 04:57:21;;;;;;;14.40;8.17;;;8.50;52.30;;;;;;5089782;28;20449;-87
2023/04/10 05:00:04;;;;;;;14.53;8.10;;;8.60;51.80;;;;;;5088991;28;20608;-88
2023/04/10 05:02:51;;;;;;;14.53;8.17;;;8.60;51.70;;;;;;5080119;28;20569;-88
2023/04/10 05:05:38;;;;;;;12.33;8.30;;;8.50;52.10;;;;;;5076576;28;20448;-86
2023/04/10 05:08:17;;;;;;;16.13;8.00;;;8.60;52.00;;;;;;5092297;28;20454;-87
2023/04/10 05:10:59;;;;;;;11.90;7.60;;;8.60;51.90;;;;;;5077252;28;20559;-88
2023/04/10 05:13:36;;;;;;;11.67;7.20;;;8.70;52.00;;;;;;5091815;28;20548;-87
2023/04/10 05:16:26;;;;;;;12.33;7.13;;;8.70;52.30;;;;;;5089548;28;20454;-86
2023/04/10 05:19:24;;;;;;;18.93;8.70;;;8.80;52.20;;;;;;5056453;28;20538;-87
2023/04/10 05:22:00;;;;;;;15.40;9.07;;;8.80;52.20;;;;;;5097472;28;20960;-86
2023/04/10 05:24:45;;;;;;;12.60;8.27;;;8.80;52.10;;;;;;5069144;28;20450;-85
2023/04/10 05:27:15;;;;;;;14.77;8.40;;;8.90;52.70;;;;;;5099178;27;20458;-87
2023/04/10 05:30:01;;;;;;;14.23;9.33;;;8.90;52.00;;;;;;5097842;27;20549;-87
2023/04/10 05:32:47;;;;;;;15.20;9.27;;;8.90;52.10;;;;;;5082587;28;20877;-85
2023/04/10 05:35:29;;;;;;;14.87;8.43;;;8.90;52.10;;;;;;5079815;28;20963;-85
2023/04/10 05:38:01;;;;;;;12.10;8.00;;;8.90;52.10;;;;;;5082686;27;20457;-87
2023/04/10 05:40:31;;;;;;;16.27;8.60;;;9.00;52.20;;;;;;5081643;28;20475;-86
2023/04/10 05:43:22;;;;;;;13.93;7.93;;;8.90;52.20;;;;;;5074789;28;20442;-84
2023/04/10 05:45:59;;;;;;;14.60;9.00;;;8.90;52.90;;;;;;5083137;28;20549;-86
2023/04/10 05:48:49;;;;;;;13.50;8.60;;;8.90;52.80;;;;;;5079194;28;20452;-88
2023/04/10 05:51:23;;;;;;;10.97;8.43;;;8.90;53.40;;;;;;5067772;28;22356;-87
2023/04/10 05:54:06;;;;;;;17.73;9.40;;;8.80;53.80;;;;;;5111334;27;20483;-86
2023/04/10 05:56:49;;;;;;;14.40;8.73;;;8.90;53.80;;;;;;5052078;28;20452;-87
2023/04/10 05:59:51;;;;;;;15.00;8.93;;;9.00;53.80;;;;;;5088965;28;20457;-87
2023/04/10 06:02:40;;;;;;;16.07;9.37;;;9.00;54.40;;;;;;5098766;27;20446;-86
2023/04/10 06:05:12;;;;;;;15.10;9.00;;;8.90;54.50;;;;;;5076837;28;20464;-87
2023/04/10 06:07:42;;;;;;;13.47;9.33;;;8.90;54.50;;;;;;5077766;27;20795;-85
2023/04/10 06:10:10;;;;;;;16.93;10.00;;;9.00;54.30;;;;;;5087575;28;20554;-87
2023/04/10 06:12:37;;;;;;;16.90;10.40;;;9.10;54.10;;;;;;5092136;27;20478;-89
2023/04/10 06:15:07;;;;;;;17.50;10.50;;;9.20;53.90;;;;;;5111112;28;20562;-87
2023/04/10 06:17:41;;;;;;;17.93;10.00;;;9.30;54.10;;;;;;5056682;28;20442;-84
2023/04/10 06:20:10;;;;;;;15.20;9.07;;;9.30;53.90;;;;;;5083543;28;20580;-87
2023/04/10 06:22:37;;;;;;;16.10;10.67;;;9.30;54.20;;;;;;5078244;28;20543;-86
2023/04/10 06:25:06;;;;;;;17.33;11.30;;;9.30;54.20;;;;;;5075114;28;20493;-87
2023/04/10 06:27:34;;;;;;;19.80;10.10;;;9.40;54.10;;;;;;5078835;28;20526;-88
2023/04/10 06:30:02;;;;;;;16.13;9.50;;;9.10;54.40;;;;;;5096427;28;20865;-87
2023/04/10 06:32:30;;;;;;;18.47;10.10;;;8.80;55.40;;;;;;5079228;28;20538;-88
2023/04/10 06:34:58;;;;;;;15.73;9.63;;;8.70;55.70;;;;;;5051303;28;20527;-86
2023/04/10 06:37:30;;;;;;;18.47;9.80;;;8.50;56.00;;;;;;5073386;28;20451;-87
2023/04/10 06:40:07;;;;;;;18.70;10.77;;;8.70;56.10;;;;;;5097795;28;20458;-86
2023/04/10 06:42:35;;;;;;;15.40;9.87;;;8.90;55.80;;;;;;5056416;28;20492;-87
2023/04/10 06:45:09;;;;;;;15.50;9.40;;;8.80;56.00;;;;;;5100873;28;20459;-87
2023/04/10 06:47:36;;;;;;;21.43;11.23;;;9.20;55.50;;;;;;5062148;28;20538;-86
2023/04/10 06:50:04;;;;;;;17.77;10.50;;;9.10;55.30;;;;;;5074300;28;21017;-87
2023/04/10 06:52:32;;;;;;;22.23;11.03;;;9.10;55.20;;;;;;5085121;28;20667;-86
2023/04/10 06:54:59;;;;;;;16.80;10.47;;;9.30;55.30;;;;;;5093535;28;20486;-87
2023/04/10 06:57:28;;;;;;;17.70;11.20;;;9.40;54.70;;;;;;5084047;28;20503;-88
2023/04/10 06:59:55;;;;;;;15.40;10.10;;;9.60;54.50;;;;;;5084759;28;22004;-86
2023/04/10 07:02:22;;;;;;;26.10;12.10;;;9.70;54.30;;;;;;5073821;28;20465;-85
2023/04/10 07:04:50;;;;;;;18.87;11.20;;;9.60;54.60;;;;;;5077164;28;20552;-88
2023/04/10 07:07:18;;;;;;;16.03;10.30;;;9.80;54.40;;;;;;5068474;28;20486;-88
2023/04/10 07:09:45;;;;;;;16.60;10.43;;;9.90;53.70;;;;;;5074863;28;20965;-86
2023/04/10 07:12:12;;;;;;;18.52;10.77;;;9.90;53.30;;;;;;5056339;28;1069421;-88
2023/04/10 07:14:41;;;;;;;18.13;11.60;;;10.00;53.10;;;;;;5060085;28;20309;-87
2023/04/10 07:17:08;;;;;;;19.53;11.23;;;10.20;53.30;;;;;;5057986;28;20451;-85
2023/04/10 07:19:36;;;;;;;17.20;10.47;;;10.20;52.80;;;;;;5045955;28;20461;-86
2023/04/10 07:22:04;;;;;;;18.97;11.33;;;10.20;52.90;;;;;;5051170;28;20968;-87
2023/04/10 07:24:31;;;;;;;21.43;11.27;;;10.20;53.20;;;;;;5068465;28;20438;-85
2023/04/10 07:26:59;;;;;;;13.87;10.03;;;10.20;53.70;;;;;;5046688;28;20503;-86
2023/04/10 07:29:26;;;;;;;15.23;9.33;;;10.40;53.60;;;;;;5062819;28;20569;-88
2023/04/10 07:31:55;;;;;;;22.70;10.90;;;10.60;53.40;;;;;;5107881;27;20475;-85
2023/04/10 07:34:22;;;;;;;17.23;10.20;;;10.80;53.00;;;;;;5078916;28;20479;-87
2023/04/10 07:36:49;;;;;;;15.13;10.47;;;10.80;53.10;;;;;;5077465;28;20463;-87
2023/04/10 07:39:17;;;;;;;18.57;11.13;;;10.70;53.40;;;;;;5109085;27;20908;-87
2023/04/10 07:41:44;;;;;;;19.33;11.07;;;10.70;53.80;;;;;;5066475;28;20980;-86
2023/04/10 07:44:12;;;;;;;16.40;11.20;;;10.80;54.10;;;;;;5064310;28;20439;-87
2023/04/10 07:46:39;;;;;;;18.67;11.53;;;11.00;54.00;;;;;;5078991;28;20442;-86
2023/04/10 07:49:07;;;;;;;15.23;9.73;;;11.20;54.00;;;;;;5058441;28;20467;-87
2023/04/10 07:51:34;;;;;;;16.03;10.60;;;11.30;53.90;;;;;;5067375;28;20505;-85
2023/04/10 07:54:03;;;;;;;17.60;10.60;;;11.40;54.50;;;;;;5096882;27;20483;-86
2023/04/10 07:56:30;;;;;;;18.57;12.20;;;11.60;54.60;;;;;;5050933;28;20570;-86
2023/04/10 07:58:59;;;;;;;18.07;11.33;;;11.70;54.40;;;;;;5046417;28;21358;-87
2023/04/10 08:01:27;;;;;;;16.53;10.70;;;11.80;54.40;;;;;;5077761;28;20495;-87
2023/04/10 08:03:55;;;;;;;18.57;11.40;;;11.90;54.40;;;;;;5095191;27;20436;-86
2023/04/10 08:06:23;;;;;;;18.93;12.10;;;12.00;54.20;;;;;;5089298;28;20451;-87
2023/04/10 08:08:51;;;;;;;18.67;11.40;;;12.00;54.00;;;;;;5091017;28;20546;-88
2023/04/10 08:11:26;;;;;;;16.20;11.33;;;12.20;54.10;;;;;;5069643;28;20460;-88
2023/04/10 08:13:54;;;;;;;18.07;11.07;;;12.30;53.70;;;;;;5076873;28;20482;-88
2023/04/10 08:16:24;;;;;;;17.87;11.37;;;12.20;53.80;;;;;;5065328;28;20550;-85
2023/04/10 08:18:51;;;;;;;17.13;11.23;;;12.30;53.40;;;;;;5075151;28;20834;-87
2023/04/10 08:21:19;;;;;;;14.07;8.97;;;12.40;52.90;;;;;;5092068;28;20575;-88
2023/04/10 08:23:47;;;;;;;16.50;11.20;;;12.60;52.80;;;;;;5082289;28;20986;-86
2023/04/10 08:26:14;;;;;;;16.57;11.03;;;12.70;53.40;;;;;;5078615;28;20443;-86
2023/04/10 08:28:45;;;;;;;16.30;11.13;;;12.90;53.00;;;;;;5092334;28;20864;-87
2023/04/10 08:31:13;;;;;;;17.20;11.43;;;13.10;52.90;;;;;;5091048;27;20600;-87
2023/04/10 08:33:40;;;;;;;18.93;11.63;;;13.10;53.10;;;;;;5074881;28;20487;-87
2023/04/10 08:36:08;;;;;;;18.77;11.83;;;13.20;53.50;;;;;;5088470;28;20458;-85
2023/04/10 08:38:35;;;;;;;20.97;12.33;;;13.40;52.90;;;;;;5091132;27;20457;-86
2023/04/10 08:41:04;;;;;;;20.77;10.60;;;13.60;53.20;;;;;;5073666;28;20475;-87
2023/04/10 08:43:33;;;;;;;18.13;10.40;;;13.80;52.60;;;;;;5074818;28;21416;-85
2023/04/10 08:46:01;;;;;;;19.43;10.17;;;13.90;50.70;;;;;;5044305;28;20495;-85
2023/04/10 08:48:35;;;;;;;23.90;11.23;;;14.10;49.30;;;;;;5074574;28;20451;-85
2023/04/10 08:51:04;;;;;;;31.30;17.70;;;14.20;48.50;;;;;;5045234;28;20520;-85
2023/04/10 08:53:40;;;;;;;16.77;10.47;;;14.40;47.30;;;;;;5063337;28;20494;-85
2023/04/10 08:56:13;;;;;;;19.93;11.93;;;14.60;47.50;;;;;;5061341;28;20447;-86
2023/04/10 08:58:41;;;;;;;16.43;10.23;;;14.90;47.50;;;;;;5089762;28;20759;-85
2023/04/10 09:01:09;;;;;;;16.87;9.97;;;15.10;47.10;;;;;;5043315;28;20474;-86
2023/04/10 09:03:37;;;;;;;15.70;9.27;;;15.20;46.50;;;;;;5065381;28;20893;-85
2023/04/10 09:06:05;;;;;;;15.30;9.20;;;15.30;46.10;;;;;;5071292;28;20450;-86
2023/04/10 09:08:33;;;;;;;15.83;10.00;;;15.30;46.00;;;;;;5080355;28;20457;-85
2023/04/10 09:11:00;;;;;;;15.00;8.80;;;14.90;45.30;;;;;;5057600;28;20579;-85
2023/04/10 09:13:39;;;;;;;12.60;8.37;;;15.00;46.00;;;;;;5071460;28;20885;-86
2023/04/10 09:16:08;;;;;;;16.60;9.87;;;15.30;45.60;;;;;;5075209;28;20516;-86
2023/04/10 09:18:47;;;;;;;12.27;8.67;;;15.30;45.60;;;;;;5057318;28;20443;-85
2023/04/10 09:21:16;;;;;;;16.10;10.07;;;15.80;46.20;;;;;;5090733;28;20999;-86
2023/04/10 09:23:44;;;;;;;16.63;9.37;;;16.00;45.30;;;;;;5072736;28;20869;-85
2023/04/10 09:26:25;;;;;;;16.27;10.40;;;16.10;44.40;;;;;;5067018;28;20463;-86
2023/04/10 09:28:59;;;;;;;15.47;9.93;;;16.50;45.40;;;;;;5066577;28;20447;-86
2023/04/10 09:31:31;;;;;;;13.00;8.57;;;16.70;44.30;;;;;;5075438;28;20528;-86
2023/04/10 09:34:15;;;;;;;13.07;8.27;;;16.90;43.10;;;;;;5057665;28;20550;-85
2023/04/10 09:36:42;;;;;;;12.00;7.70;;;16.60;43.20;;;;;;5052110;28;20459;-85
2023/04/10 09:39:11;;;;;;;11.43;8.40;;;16.90;42.40;;;;;;5108914;27;20444;-85
2023/04/10 09:41:49;;;;;;;11.10;7.30;;;17.00;42.90;;;;;;5090498;28;20466;-85
2023/04/10 09:44:20;;;;;;;10.63;7.27;;;17.20;42.10;;;;;;5059935;28;20467;-83
2023/04/10 09:46:48;;;;;;;10.47;6.80;;;17.50;40.80;;;;;;5072878;28;20472;-86
2023/04/10 09:49:16;;;;;;;12.37;7.10;;;17.40;39.60;;;;;;5049748;28;20454;-86
2023/04/10 09:51:43;;;;;;;11.60;7.30;;;17.10;40.10;;;;;;5073520;28;20491;-85
2023/04/10 09:54:10;;;;;;;10.80;7.20;;;16.90;40.50;;;;;;5081608;28;20983;-85
2023/04/10 09:56:39;;;;;;;7.80;5.60;;;17.10;41.30;;;;;;5072959;28;20474;-87
2023/04/10 09:59:08;;;;;;;8.90;6.30;;;17.60;41.10;;;;;;5089974;28;20971;-86
2023/04/10 10:01:39;;;;;;;10.83;6.10;;;18.10;39.40;;;;;;5056287;28;21623;-85
2023/04/10 10:04:09;;;;;;;9.73;6.50;;;18.10;39.00;;;;;;5057897;28;20501;-86
2023/04/10 10:06:39;;;;;;;8.70;6.47;;;18.10;38.70;;;;;;5091596;28;20485;-86
2023/04/10 10:09:06;;;;;;;7.90;6.37;;;18.40;39.00;;;;;;5087316;28;20478;-87
2023/04/10 10:11:34;;;;;;;9.50;6.03;;;18.40;35.60;;;;;;5055010;28;21076;-85
2023/04/10 10:14:04;;;;;;;8.67;6.63;;;18.50;36.70;;;;;;5111461;27;20503;-86
2023/04/10 10:16:39;;;;;;;6.93;6.00;;;18.60;36.90;;;;;;5066390;28;20502;-85
2023/04/10 10:19:12;;;;;;;6.60;4.90;;;18.70;36.50;;;;;;5077507;28;20458;-87
2023/04/10 10:21:43;;;;;;;6.07;4.50;;;18.70;34.90;;;;;;5051014;28;20478;-86
2023/04/10 10:24:13;;;;;;;9.43;6.63;;;18.90;35.90;;;;;;5090066;27;20501;-86
2023/04/10 10:26:40;;;;;;;7.37;5.50;;;19.10;36.10;;;;;;5064055;28;20442;-86
2023/04/10 10:29:09;;;;;;;7.00;5.07;;;19.20;35.60;;;;;;5076125;28;20574;-86
2023/04/10 10:31:38;;;;;;;7.80;4.83;;;19.40;35.10;;;;;;5076315;28;20481;-86
2023/04/10 10:34:07;;;;;;;6.70;5.37;;;19.60;35.80;;;;;;5082792;28;20497;-86
2023/04/10 10:36:35;;;;;;;5.50;4.60;;;20.00;36.00;;;;;;5090940;27;20439;-87
2023/04/10 10:39:21;;;;;;;6.40;4.70;;;20.20;34.60;;;;;;5077432;28;20451;-86
2023/04/10 10:42:08;;;;;;;6.03;4.70;;;20.40;32.30;;;;;;5084467;27;20482;-84
2023/04/10 10:44:42;;;;;;;6.00;4.63;;;20.60;32.60;;;;;;5077128;28;21094;-86
2023/04/10 10:47:22;;;;;;;7.17;4.57;;;21.00;32.30;;;;;;5067336;28;20972;-86
2023/04/10 10:49:55;;;;;;;9.87;6.63;;;20.80;31.20;;;;;;5079383;27;20444;-86
2023/04/10 10:52:42;;;;;;;10.43;6.37;;;20.20;31.60;;;;;;5090990;27;20849;-85
2023/04/10 10:55:30;;;;;;;5.93;4.20;;;20.00;31.30;;;;;;5075326;28;20481;-86
2023/04/10 10:58:00;;;;;;;5.73;4.23;;;20.00;32.30;;;;;;5084193;28;20550;-86
2023/04/10 11:00:47;;;;;;;5.83;4.63;;;19.70;33.80;;;;;;5088972;28;20467;-85
2023/04/10 11:03:31;;;;;;;11.53;6.47;;;19.50;32.30;;;;;;5055100;28;20473;-85
2023/04/10 11:06:01;;;;;;;9.13;6.20;;;19.20;34.30;;;;;;5092595;28;20531;-86
2023/04/10 11:08:44;;;;;;;7.33;4.70;;;19.40;32.70;;;;;;5050548;28;20538;-86
2023/04/10 11:11:22;;;;;;;8.63;5.60;;;19.50;34.30;;;;;;5095551;27;20469;-86
2023/04/10 11:14:16;;;;;;;8.57;5.70;;;20.10;34.60;;;;;;5078511;28;20463;-87
2023/04/10 11:16:45;;;;;;;9.40;6.50;;;20.10;31.90;;;;;;5093091;28;20440;-86
2023/04/10 11:19:16;;;;;;;11.23;5.70;;;20.20;32.20;;;;;;5091829;28;20454;-86
2023/04/10 11:22:04;;;;;;;8.87;5.97;;;20.30;32.30;;;;;;5091781;28;20478;-87
2023/04/10 11:25:09;;;;;;;5.10;4.40;;;20.20;33.00;;;;;;5046714;28;20531;-86
2023/04/10 11:27:47;;;;;;;4.80;4.10;;;20.30;31.90;;;;;;5071281;28;20579;-86
2023/04/10 11:30:28;;;;;;;6.30;4.80;;;20.20;32.00;;;;;;5065093;27;20491;-87
2023/04/10 11:32:55;;;;;;;6.10;4.80;;;20.00;35.00;;;;;;5064334;28;20482;-85
2023/04/10 11:35:25;;;;;;;6.90;5.00;;;20.40;33.80;;;;;;5098124;28;20478;-86
2023/04/10 11:37:52;;;;;;;8.30;6.67;;;20.80;32.60;;;;;;5076216;28;20505;-86
2023/04/10 11:40:20;;;;;;;9.33;6.43;;;21.20;31.10;;;;;;5072439;28;20500;-85
2023/04/10 11:42:47;;;;;;;5.53;4.50;;;21.30;30.80;;;;;;5105798;27;20436;-86
2023/04/10 11:45:26;;;;;;;5.47;4.53;;;21.30;31.30;;;;;;5057127;27;20446;-86
2023/04/10 11:47:53;;;;;;;4.73;4.10;;;21.40;29.80;;;;;;5055678;28;20486;-85
2023/04/10 11:50:22;;;;;;;7.60;5.60;;;21.00;30.60;;;;;;5092248;28;21188;-87
2023/04/10 11:52:50;;;;;;;6.07;4.80;;;21.30;32.10;;;;;;5074875;28;20459;-86
2023/04/10 11:55:17;;;;;;;5.13;3.50;;;21.80;32.50;;;;;;5066341;28;20475;-86
2023/04/10 11:57:45;;;;;;;6.30;4.80;;;22.10;30.10;;;;;;5066611;28;20462;-87
2023/04/10 12:00:24;;;;;;;7.33;5.10;;;22.10;29.30;;;;;;5091516;28;20557;-86
2023/04/10 12:02:52;;;;;;;5.80;4.10;;;22.20;28.80;;;;;;5075595;28;21000;-86
2023/04/10 12:05:20;;;;;;;3.70;2.93;;;21.70;29.90;;;;;;5072506;28;20499;-86
2023/04/10 12:07:49;;;;;;;4.10;3.70;;;22.00;30.10;;;;;;5091214;28;20443;-86
2023/04/10 12:10:16;;;;;;;3.60;3.30;;;21.80;29.50;;;;;;5090505;27;20553;-87
2023/04/10 12:12:43;;;;;;;8.73;4.83;;;21.70;28.80;;;;;;5088742;28;21088;-87
2023/04/10 12:15:27;;;;;;;5.77;3.70;;;22.10;29.80;;;;;;5070958;27;20503;-88
2023/04/10 12:17:54;;;;;;;4.43;3.60;;;22.10;28.50;;;;;;5085746;27;21058;-87
2023/04/10 12:20:25;;;;;;;5.30;3.97;;;22.40;28.70;;;;;;5062262;28;20762;-87
2023/04/10 12:23:00;;;;;;;8.00;5.80;;;22.60;29.30;;;;;;5073410;28;21129;-87
2023/04/10 12:25:27;;;;;;;4.77;4.10;;;22.30;27.80;;;;;;5100128;27;20555;-87
2023/04/10 12:27:54;;;;;;;4.93;3.60;;;21.50;29.00;;;;;;5087173;28;20463;-88
2023/04/10 12:30:21;;;;;;;4.73;3.73;;;21.50;29.60;;;;;;5086828;28;20487;-87
2023/04/10 12:32:53;;;;;;;4.73;3.83;;;21.60;30.20;;;;;;5078967;28;20446;-88
2023/04/10 12:35:20;;;;;;;3.80;3.40;;;22.00;29.00;;;;;;5074690;28;20498;-87
2023/04/10 12:37:48;;;;;;;5.10;3.90;;;21.60;28.00;;;;;;5071403;28;20451;-87
2023/04/10 12:40:17;;;;;;;4.53;3.80;;;21.50;28.50;;;;;;5087398;27;20453;-87
2023/04/10 12:42:44;;;;;;;4.50;4.00;;;21.70;29.30;;;;;;5042373;28;20459;-87
2023/04/10 12:45:13;;;;;;;3.50;3.20;;;21.70;28.40;;;;;;5088826;27;21290;-87
2023/04/10 12:47:45;;;;;;;4.37;3.97;;;22.10;29.40;;;;;;5043166;28;20447;-86
2023/04/10 12:50:14;;;;;;;4.03;3.10;;;22.60;28.30;;;;;;5069345;28;20474;-87
2023/04/10 12:52:43;;;;;;;4.57;4.17;;;22.10;28.30;;;;;;5089215;28;20532;-88
2023/04/10 12:55:13;;;;;;;3.80;3.40;;;22.20;28.70;;;;;;5106176;27;20455;-87
2023/04/10 12:57:42;;;;;;;3.80;3.20;;;21.70;28.90;;;;;;5078037;28;21027;-87
2023/04/10 13:00:11;;;;;;;3.80;3.20;;;22.00;28.80;;;;;;5085061;28;20562;-87
2023/04/10 13:02:39;;;;;;;4.10;3.53;;;22.30;28.80;;;;;;5069191;28;20453;-88
2023/04/10 13:05:07;;;;;;;4.63;3.80;;;22.30;28.70;;;;;;5043482;28;20469;-87
2023/04/10 13:07:35;;;;;;;3.53;3.10;;;22.50;29.00;;;;;;5073112;28;20446;-88